createdAt,value
2022-11-26T00:01:22.521Z,101717.91
2022-11-26T00:04:24.637Z,101728.56
2022-11-26T00:07:29.975Z,101720.63
2022-11-26T00:10:36.471Z,101726.53
2022-11-26T00:13:38.433Z,101730.34
2022-11-26T00:16:40.646Z,101732.59
2022-11-26T00:19:44.033Z,101734.06
2022-11-26T00:22:50.946Z,101734.63
2022-11-26T00:25:59.878Z,101710.13
2022-11-26T00:29:01.861Z,101741.31
2022-11-26T00:32:06.201Z,101747.84
2022-11-26T00:35:08.503Z,101756.31
2022-11-26T00:38:17.154Z,101741.44
2022-11-26T00:41:22.401Z,101734.66
2022-11-26T00:44:26.101Z,101746.69
2022-11-26T00:47:28.093Z,101736.13
2022-11-26T00:50:36.925Z,101751.13
2022-11-26T00:53:40.754Z,101752.56
2022-11-26T00:56:42.994Z,101721.94
2022-11-26T00:59:45.024Z,101741.06
2022-11-26T01:02:47.320Z,101749.31
2022-11-26T01:05:54.923Z,101742.69
2022-11-26T01:08:57.318Z,101736.53
2022-11-26T01:11:59.866Z,101748.22
2022-11-26T01:15:01.946Z,101743.50
2022-11-26T01:18:15.083Z,101747.88
2022-11-26T01:21:17.907Z,101736.97
2022-11-26T01:24:19.977Z,101741.81
2022-11-26T01:27:22.116Z,101725.66
2022-11-26T01:30:26.897Z,101728.78
2022-11-26T01:33:28.944Z,101735.56
2022-11-26T01:36:33.625Z,101728.78
2022-11-26T01:39:35.662Z,101725.47
2022-11-26T01:42:49.705Z,101721.25
2022-11-26T01:45:51.831Z,101736.25
2022-11-26T01:48:55.882Z,101731.88
2022-11-26T01:52:16.118Z,101727.91
2022-11-26T01:55:19.436Z,101721.56
2022-11-26T01:58:27.397Z,101739.13
2022-11-26T02:01:29.637Z,101729.81
2022-11-26T02:04:34.956Z,101732.34
2022-11-26T02:07:37.777Z,101719.88
2022-11-26T02:10:39.831Z,101733.28
2022-11-26T02:13:42.067Z,101747.66
2022-11-26T02:17:02.473Z,101749.22
2022-11-26T02:20:10.299Z,101747.94
2022-11-26T02:23:18.076Z,101744.81
2022-11-26T02:26:41.730Z,101752.22
2022-11-26T02:29:51.716Z,101737.34
2022-11-26T02:33:04.664Z,101728.97
2022-11-26T02:36:19.618Z,101745.25
2022-11-26T02:39:24.821Z,101756.03
2022-11-26T02:42:29.730Z,101747.13
2022-11-26T02:45:37.361Z,101759.88
2022-11-26T02:48:43.625Z,101761.53
2022-11-26T02:51:48.191Z,101764.41
2022-11-26T02:54:52.925Z,101769.50
2022-11-26T02:57:56.269Z,101760.13
2022-11-26T03:01:00.864Z,101761.69
2022-11-26T03:04:09.791Z,101773.78
2022-11-26T03:07:15.065Z,101764.53
2022-11-26T03:10:17.296Z,101761.72
2022-11-26T03:13:19.338Z,101776.03
2022-11-26T03:16:21.526Z,101779.84
2022-11-26T03:19:23.661Z,101777.88
2022-11-26T03:22:25.853Z,101778.44
2022-11-26T03:25:27.909Z,101757.31
2022-11-26T03:28:30.480Z,101778.88
2022-11-26T03:31:32.621Z,101759.91
2022-11-26T03:34:34.692Z,101784.69
2022-11-26T03:37:37.491Z,101787.09
2022-11-26T03:40:39.530Z,101780.44
2022-11-26T03:43:41.665Z,101793.91
2022-11-26T03:46:43.698Z,101782.56
2022-11-26T03:49:45.770Z,101760.16
2022-11-26T03:52:47.913Z,101790.41
2022-11-26T03:55:49.877Z,101811.63
2022-11-26T03:58:51.851Z,101802.00
2022-11-26T04:01:53.996Z,101785.25
2022-11-26T04:04:56.122Z,101820.56
2022-11-26T04:07:58.071Z,101816.03
2022-11-26T04:11:00.241Z,101817.47
2022-11-26T04:14:02.310Z,101793.09
2022-11-26T04:17:04.491Z,101803.84
2022-11-26T04:20:07.499Z,101819.88
2022-11-26T04:23:09.521Z,101836.03
2022-11-26T04:26:11.580Z,101834.19
2022-11-26T04:29:13.643Z,101822.44
2022-11-26T04:32:15.709Z,101843.00
2022-11-26T04:35:17.896Z,101851.09
2022-11-26T04:38:25.329Z,101843.28
2022-11-26T04:41:28.115Z,101843.84
2022-11-26T04:44:30.335Z,101844.56
2022-11-26T04:47:32.331Z,101854.34
2022-11-26T04:50:34.443Z,101859.03
2022-11-26T04:53:36.443Z,101849.53
2022-11-26T04:56:38.548Z,101848.97
2022-11-26T04:59:40.588Z,101860.88
2022-11-26T05:02:42.997Z,101864.97
2022-11-26T05:05:45.026Z,101842.25
2022-11-26T05:08:47.088Z,101852.16
2022-11-26T05:11:49.238Z,101857.75
2022-11-26T05:14:51.376Z,101858.03
2022-11-26T05:17:53.453Z,101855.41
2022-11-26T05:20:55.566Z,101865.75
2022-11-26T05:23:57.593Z,101859.47
2022-11-26T05:26:59.676Z,101861.56
2022-11-26T05:30:02.123Z,101866.59
2022-11-26T05:33:04.284Z,101851.97
2022-11-26T05:36:06.461Z,101878.75
2022-11-26T05:39:08.497Z,101871.00
2022-11-26T05:42:10.570Z,101878.34
2022-11-26T05:45:12.580Z,101869.56
2022-11-26T05:48:14.507Z,101847.72
2022-11-26T05:51:16.572Z,101866.94
2022-11-26T05:54:18.648Z,101875.22
2022-11-26T05:57:20.933Z,101885.50
2022-11-26T06:00:23.442Z,101893.59
2022-11-26T06:03:25.613Z,101898.38
2022-11-26T06:06:27.731Z,101900.91
2022-11-26T06:09:29.806Z,101911.56
2022-11-26T06:12:31.893Z,101907.69
2022-11-26T06:15:33.960Z,101906.88
2022-11-26T06:18:39.236Z,101904.13
2022-11-26T06:21:41.265Z,101914.16
2022-11-26T06:24:43.255Z,101920.78
2022-11-26T06:27:45.318Z,101920.66
2022-11-26T06:30:47.455Z,101923.03
2022-11-26T06:33:54.282Z,101923.25
2022-11-26T06:36:56.334Z,101926.53
2022-11-26T06:39:58.590Z,101935.06
2022-11-26T06:43:00.781Z,101922.03
2022-11-26T06:46:05.673Z,101926.16
2022-11-26T06:49:07.815Z,101905.56
2022-11-26T06:52:09.948Z,101915.34
2022-11-26T06:55:12.177Z,101921.97
2022-11-26T06:58:15.110Z,101915.13
2022-11-26T07:01:25.019Z,101925.25
2022-11-26T07:04:27.378Z,101918.88
2022-11-26T07:07:29.728Z,101932.25
2022-11-26T07:10:31.917Z,101931.53
2022-11-26T07:13:34.017Z,101941.38
2022-11-26T07:16:36.750Z,101965.22
2022-11-26T07:19:38.976Z,101949.81
2022-11-26T07:22:41.017Z,101975.91
2022-11-26T07:25:42.956Z,101962.34
2022-11-26T07:28:45.104Z,101976.38
2022-11-26T07:31:50.136Z,101983.28
2022-11-26T07:34:53.995Z,101975.31
2022-11-26T07:37:56.631Z,101999.53
2022-11-26T07:41:10.331Z,102005.28
2022-11-26T07:44:14.371Z,101989.28
2022-11-26T07:47:17.577Z,102000.16
2022-11-26T07:50:19.690Z,101979.44
2022-11-26T07:53:21.949Z,101978.75
2022-11-26T07:56:24.703Z,101994.00
2022-11-26T07:59:27.242Z,101979.75
2022-11-26T08:02:29.236Z,101969.03
2022-11-26T08:05:31.296Z,101987.63
2022-11-26T08:08:34.883Z,101990.03
2022-11-26T08:11:37.094Z,101980.59
2022-11-26T08:14:39.232Z,101989.88
2022-11-26T08:17:41.474Z,102005.59
2022-11-26T08:20:43.573Z,101995.72
2022-11-26T08:23:47.931Z,101982.53
2022-11-26T08:26:57.276Z,102000.22
2022-11-26T08:29:59.365Z,102012.53
2022-11-26T08:33:04.009Z,102014.41
2022-11-26T08:36:08.587Z,102003.66
2022-11-26T08:39:15.329Z,102004.38
2022-11-26T08:42:17.407Z,102009.56
2022-11-26T08:45:19.419Z,102003.06
2022-11-26T08:48:22.912Z,102005.19
2022-11-26T08:51:25.147Z,102017.31
2022-11-26T08:54:27.563Z,102011.34
2022-11-26T08:57:29.565Z,102019.56
2022-11-26T09:00:31.622Z,102024.56
2022-11-26T09:03:33.728Z,102020.31
2022-11-26T09:06:38.503Z,102032.81
2022-11-26T09:09:42.913Z,102032.16
2022-11-26T09:12:45.107Z,102027.91
2022-11-26T09:15:48.636Z,102022.47
2022-11-26T09:18:52.628Z,102015.59
2022-11-26T09:21:55.091Z,102005.53
2022-11-26T09:24:57.079Z,102026.75
2022-11-26T09:27:59.151Z,102020.97
2022-11-26T09:31:02.256Z,102022.59
2022-11-26T09:34:04.437Z,102022.16
2022-11-26T09:37:06.960Z,102024.66
2022-11-26T09:40:19.043Z,102021.63
2022-11-26T09:43:33.560Z,102028.47
2022-11-26T09:47:12.581Z,102015.84
2022-11-26T09:50:15.290Z,102031.16
2022-11-26T09:53:25.744Z,102026.69
2022-11-26T09:56:27.906Z,102031.25
2022-11-26T09:59:30.871Z,102023.88
2022-11-26T10:02:40.886Z,102021.44
2022-11-26T10:06:03.153Z,102032.78
2022-11-26T10:09:17.014Z,102021.78
2022-11-26T10:13:03.427Z,102025.16
2022-11-26T10:16:15.293Z,102002.38
2022-11-26T10:19:44.980Z,102030.41
2022-11-26T10:22:58.628Z,102024.78
2022-11-26T10:26:29.596Z,102006.28
2022-11-26T10:29:39.523Z,102011.84
2022-11-26T10:32:44.916Z,102024.81
2022-11-26T10:35:49.659Z,102035.16
2022-11-26T10:38:53.681Z,102026.72
2022-11-26T10:41:56.028Z,102016.69
2022-11-26T10:45:18.710Z,102022.19
2022-11-26T10:48:27.113Z,102033.06
2022-11-26T10:51:33.299Z,102039.59
2022-11-26T10:54:38.208Z,102042.28
2022-11-26T10:57:43.965Z,102036.16
2022-11-26T11:00:48.847Z,102048.63
2022-11-26T11:04:13.087Z,102028.41
2022-11-26T11:07:34.691Z,102048.22
2022-11-26T11:10:38.030Z,102024.41
2022-11-26T11:13:45.009Z,102046.88
2022-11-26T11:16:47.131Z,102036.09
2022-11-26T11:19:49.187Z,102033.22
2022-11-26T11:23:00.482Z,102043.03
2022-11-26T11:26:09.154Z,102029.13
2022-11-26T11:29:35.401Z,102032.63
2022-11-26T11:32:40.741Z,102041.91
2022-11-26T11:35:43.039Z,102050.81
2022-11-26T11:38:53.883Z,102046.19
2022-11-26T11:42:05.020Z,102042.53
2022-11-26T11:45:23.225Z,102016.72
2022-11-26T11:48:43.744Z,102061.94
2022-11-26T11:51:58.375Z,102070.22
2022-11-26T11:55:28.991Z,102060.56
2022-11-26T11:58:38.284Z,102064.53
2022-11-26T12:01:54.187Z,102062.13
2022-11-26T12:05:17.846Z,102053.00
2022-11-26T12:08:45.777Z,102051.53
2022-11-26T12:11:59.206Z,102053.22
2022-11-26T12:15:22.100Z,102057.09
2022-11-26T12:18:46.520Z,102061.41
2022-11-26T12:21:56.944Z,102050.38
2022-11-26T12:25:18.167Z,102056.03
2022-11-26T12:28:27.963Z,102049.16
2022-11-26T12:31:39.150Z,102045.13
2022-11-26T12:34:47.684Z,102065.13
2022-11-26T12:38:39.614Z,102062.19
2022-11-26T12:41:48.280Z,102054.72
2022-11-26T12:44:55.654Z,102048.59
2022-11-26T12:48:05.623Z,102044.69
2022-11-26T12:51:26.690Z,102041.03
2022-11-26T12:54:28.759Z,102051.22
2022-11-26T12:58:08.201Z,102058.69
2022-11-26T13:01:11.773Z,102065.03
2022-11-26T13:08:32.357Z,102060.06
2022-11-26T13:11:55.233Z,102040.59
2022-11-26T13:15:32.050Z,102048.19
2022-11-26T13:18:38.869Z,102066.28
2022-11-26T13:21:54.764Z,102078.50
2022-11-26T13:25:28.619Z,102072.31
2022-11-26T13:29:18.094Z,102078.44
2022-11-26T13:32:44.323Z,102069.16
2022-11-26T13:36:26.946Z,102072.16
2022-11-26T13:39:50.645Z,102072.53
2022-11-26T13:43:17.109Z,102062.00
2022-11-26T13:46:47.090Z,102079.50
2022-11-26T13:50:14.938Z,102064.97
2022-11-26T13:53:32.703Z,102079.16
2022-11-26T13:56:38.376Z,102076.72
2022-11-26T13:59:57.175Z,102072.03
2022-11-26T14:03:01.273Z,102042.72
2022-11-26T14:06:07.817Z,102080.44
2022-11-26T14:09:57.716Z,102088.53
2022-11-26T14:13:05.885Z,102090.50
2022-11-26T14:16:16.188Z,102086.25
2022-11-26T14:19:22.227Z,102088.72
2022-11-26T14:22:34.996Z,102089.25
2022-11-26T14:25:40.314Z,102082.00
2022-11-26T14:28:43.171Z,102091.97
2022-11-26T14:31:54.050Z,102097.91
2022-11-26T14:35:01.062Z,102090.59
2022-11-26T14:38:09.724Z,102112.25
2022-11-26T14:41:11.589Z,102114.81
2022-11-26T14:44:18.594Z,102110.13
2022-11-26T14:47:22.231Z,102090.13
2022-11-26T14:50:24.932Z,102108.34
2022-11-26T14:53:31.089Z,102083.13
2022-11-26T14:56:42.763Z,102094.50
2022-11-26T15:00:02.602Z,102049.66
2022-11-26T15:03:25.467Z,102097.38
2022-11-26T15:06:30.222Z,102088.91
2022-11-26T15:09:32.331Z,102105.19
2022-11-26T15:13:04.721Z,102102.63
2022-11-26T15:16:53.989Z,102108.50
2022-11-26T15:20:02.836Z,102077.78
2022-11-26T15:23:09.395Z,102114.13
2022-11-26T15:29:49.424Z,102119.97
2022-11-26T15:33:10.214Z,102115.22
2022-11-26T15:36:17.451Z,102127.03
2022-11-26T15:39:32.045Z,102113.09
2022-11-26T15:42:34.482Z,102128.59
2022-11-26T15:45:40.751Z,102124.53
2022-11-26T15:48:53.737Z,102131.69
2022-11-26T15:52:03.715Z,102133.84
2022-11-26T15:55:12.984Z,102134.34
2022-11-26T15:58:31.814Z,102104.03
2022-11-26T16:01:36.590Z,102137.56
2022-11-26T16:05:08.450Z,102149.75
2022-11-26T16:08:27.979Z,102147.59
2022-11-26T16:11:32.059Z,102156.16
2022-11-26T16:14:36.713Z,102154.78
2022-11-26T16:17:39.476Z,102159.06
2022-11-26T16:20:42.546Z,102159.47
2022-11-26T16:23:53.945Z,102150.78
2022-11-26T16:27:02.251Z,102159.66
2022-11-26T16:30:14.772Z,102157.78
2022-11-26T16:33:19.280Z,102165.97
2022-11-26T16:36:24.319Z,102172.75
2022-11-26T16:39:30.025Z,102176.84
2022-11-26T16:42:57.586Z,102188.06
2022-11-26T16:46:01.295Z,102183.00
2022-11-26T16:49:03.742Z,102182.81
2022-11-26T16:52:19.340Z,102180.47
2022-11-26T16:55:26.237Z,102150.94
2022-11-26T16:58:32.943Z,102194.88
2022-11-26T17:01:36.139Z,102193.16
2022-11-26T17:04:38.169Z,102193.63
2022-11-26T17:07:46.645Z,102207.47
2022-11-26T17:10:48.927Z,102210.03
2022-11-26T17:13:51.114Z,102208.25
2022-11-26T17:16:53.298Z,102220.44
2022-11-26T17:19:56.818Z,102217.81
2022-11-26T17:22:58.850Z,102217.53
2022-11-26T17:26:01.362Z,102225.59
2022-11-26T17:29:03.789Z,102224.91
2022-11-26T17:32:05.769Z,102219.84
2022-11-26T17:35:07.853Z,102222.75
2022-11-26T17:38:23.180Z,102231.53
2022-11-26T17:41:25.220Z,102219.72
2022-11-26T17:44:27.255Z,102220.56
2022-11-26T17:47:29.386Z,102230.00
2022-11-26T17:50:33.480Z,102218.59
2022-11-26T17:53:39.693Z,102212.78
2022-11-26T17:56:41.870Z,102229.56
2022-11-26T17:59:49.630Z,102233.44
2022-11-26T18:02:52.338Z,102240.91
2022-11-26T18:05:54.606Z,102237.63
2022-11-26T18:08:58.427Z,102235.66
2022-11-26T18:12:01.304Z,102220.19
2022-11-26T18:15:04.204Z,102227.72
2022-11-26T18:18:07.703Z,102238.16
2022-11-26T18:21:12.168Z,102240.97
2022-11-26T18:24:14.219Z,102249.88
2022-11-26T18:27:16.299Z,102257.47
2022-11-26T18:30:19.114Z,102260.88
2022-11-26T18:33:21.523Z,102251.91
2022-11-26T18:36:23.640Z,102264.13
2022-11-26T18:39:25.639Z,102241.81
2022-11-26T18:42:43.075Z,102241.97
2022-11-26T18:45:46.745Z,102235.72
2022-11-26T18:48:51.318Z,102263.19
2022-11-26T18:51:53.381Z,102272.66
2022-11-26T18:54:56.341Z,102273.44
2022-11-26T18:57:58.827Z,102274.44
2022-11-26T19:01:00.896Z,102252.19
2022-11-26T19:04:03.694Z,102288.78
2022-11-26T19:07:05.838Z,102291.06
2022-11-26T19:10:08.483Z,102291.66
2022-11-26T19:13:10.641Z,102275.78
2022-11-26T19:16:16.772Z,102279.09
2022-11-26T19:19:19.624Z,102243.72
2022-11-26T19:22:21.679Z,102257.81
2022-11-26T19:25:24.150Z,102279.75
2022-11-26T19:28:27.573Z,102285.28
2022-11-26T19:31:34.962Z,102268.03
2022-11-26T19:34:38.546Z,102264.06
2022-11-26T19:37:40.592Z,102302.13
2022-11-26T19:40:45.906Z,102293.28
2022-11-26T19:43:48.116Z,102300.84
2022-11-26T19:46:56.044Z,102289.09
2022-11-26T19:50:03.366Z,102288.94
2022-11-26T19:53:05.396Z,102302.19
2022-11-26T19:56:19.677Z,102296.53
2022-11-26T19:59:22.874Z,102299.13
2022-11-26T20:02:31.519Z,102297.81
2022-11-26T20:05:33.576Z,102284.88
2022-11-26T20:08:38.409Z,102293.22
2022-11-26T20:11:41.235Z,102280.38
2022-11-26T20:14:43.328Z,102305.50
2022-11-26T20:17:45.422Z,102296.28
2022-11-26T20:21:19.955Z,102313.78
2022-11-26T20:24:22.031Z,102318.19
2022-11-26T20:27:24.063Z,102287.78
2022-11-26T20:30:26.871Z,102308.00
2022-11-26T20:33:28.810Z,102294.88
2022-11-26T20:36:31.943Z,102302.22
2022-11-26T20:39:34.215Z,102298.91
2022-11-26T20:42:37.776Z,102286.28
2022-11-26T20:45:40.212Z,102284.50
2022-11-26T20:48:44.546Z,102293.16
2022-11-26T20:51:46.657Z,102288.44
2022-11-26T20:54:53.442Z,102288.78
2022-11-26T20:57:55.969Z,102293.47
2022-11-26T21:00:58.114Z,102301.88
2022-11-26T21:04:00.327Z,102310.47
2022-11-26T21:07:04.836Z,102300.16
2022-11-26T21:10:09.486Z,102308.53
2022-11-26T21:13:19.353Z,102310.53
2022-11-26T21:16:22.620Z,102315.44
2022-11-26T21:19:24.985Z,102309.78
2022-11-26T21:22:27.047Z,102305.19
2022-11-26T21:25:29.086Z,102322.25
2022-11-26T21:28:31.145Z,102325.75
2022-11-26T21:31:33.216Z,102323.31
2022-11-26T21:34:35.234Z,102318.47
2022-11-26T21:37:37.468Z,102325.38
2022-11-26T21:40:39.527Z,102313.47
2022-11-26T21:43:42.853Z,102327.69
2022-11-26T21:46:44.913Z,102321.13
2022-11-26T21:49:47.038Z,102328.44
2022-11-26T21:52:49.087Z,102326.19
2022-11-26T21:55:53.245Z,102333.69
2022-11-26T21:58:57.159Z,102330.09
2022-11-26T22:01:59.225Z,102332.19
2022-11-26T22:05:01.566Z,102336.44
2022-11-26T22:08:04.006Z,102331.88
2022-11-26T22:11:15.070Z,102307.75
2022-11-26T22:14:17.381Z,102329.63
2022-11-26T22:17:19.514Z,102330.13
2022-11-26T22:20:21.816Z,102318.41
2022-11-26T22:23:23.916Z,102325.91
2022-11-26T22:26:27.698Z,102320.69
2022-11-26T22:29:29.684Z,102329.09
2022-11-26T22:32:31.701Z,102343.50
2022-11-26T22:35:33.836Z,102331.47
2022-11-26T22:38:37.580Z,102345.38
2022-11-26T22:41:41.244Z,102340.44
2022-11-26T22:44:43.264Z,102338.59
2022-11-26T22:47:49.859Z,102352.28
2022-11-26T22:50:55.722Z,102338.78
2022-11-26T22:54:03.950Z,102337.38
2022-11-26T22:57:06.096Z,102347.19
2022-11-26T23:00:14.885Z,102346.63
2022-11-26T23:03:18.145Z,102329.81
2022-11-26T23:06:22.923Z,102343.81
2022-11-26T23:09:25.131Z,102325.34
2022-11-26T23:12:27.139Z,102340.84
2022-11-26T23:15:29.682Z,102333.00
2022-11-26T23:18:31.711Z,102321.44
2022-11-26T23:21:36.878Z,102336.53
2022-11-26T23:24:38.862Z,102341.56
2022-11-26T23:27:40.974Z,102336.81
2022-11-26T23:30:43.190Z,102334.13
2022-11-26T23:33:45.778Z,102334.28
2022-11-26T23:36:48.057Z,102318.78
2022-11-26T23:39:50.721Z,102334.84
2022-11-26T23:42:52.909Z,102327.59
2022-11-26T23:46:02.863Z,102335.25
2022-11-26T23:49:05.188Z,102318.75
2022-11-26T23:52:07.294Z,102338.53
2022-11-26T23:55:10.509Z,102341.25
2022-11-26T23:58:12.644Z,102348.94
